Sale, United Kingdom
Current Conditions -  °F | °C
As of 6:20 AM on Thursday 29 Jan 2015 (Local Time) from EGCC Reporting Station
Broken Clouds Broken Clouds  
Wind Chill: 22°   Ceiling: 1600
Heat Index: 34°   Visibility: 6mi
Dew Point: 34°   Wind: 20mph
Humidity: 100%   Direction: 250°WSW
Pressure: 29.09"   Gusts: NA
Location:  53.42°N, 2.32°W
Report Text: EGCC 290620Z 25017KT 9999 FEW007 SCT011 BKN016 01/01 Q0985 TEMPO 3000 SHSN BKN007
Loading
Personal Weather Stations






























Interactive Weather Map New forecast layout! Learn more

10-Day Weather Forecast

Advertisements
Track Severe Weather on mobile